Time;durP1;ratioP1;P1;durP2;ratioP2;P2;SDS_P1;SDS_P2;PMS_P1;PMS_P2;Temp;Humidity;BMP_temperature;BMP_pressure;BME280_temperature;BME280_humidity;BME280_pressure;Samples;Min_cycle;Max_cycle;Signal;HPM_P1;HPM_P2
2022/11/01 00:02:47;;;;;;;22.60;12.53;;;13.40;99.90;;;;;;10416177;28;20744;-71
2022/11/01 00:07:47;;;;;;;17.87;12.20;;;13.40;99.90;;;;;;10418364;28;20695;-76
2022/11/01 00:12:48;;;;;;;22.70;11.93;;;13.40;99.90;;;;;;10385835;28;20236;-77
2022/11/01 00:17:48;;;;;;;15.43;11.50;;;13.40;99.90;;;;;;10393960;28;20251;-77
2022/11/01 00:22:49;;;;;;;19.00;12.23;;;13.50;99.90;;;;;;10386154;28;20232;-77
2022/11/01 00:27:50;;;;;;;15.40;10.57;;;13.50;99.90;;;;;;10407614;28;20209;-74
2022/11/01 00:32:50;;;;;;;13.40;10.70;;;13.50;99.90;;;;;;10399784;28;20648;-74
2022/11/01 00:37:51;;;;;;;14.77;11.67;;;13.50;99.90;;;;;;10384934;28;20328;-74
2022/11/01 00:42:51;;;;;;;20.83;12.00;;;13.40;99.90;;;;;;10393841;28;20311;-74
2022/11/01 00:47:52;;;;;;;21.67;12.77;;;13.50;99.90;;;;;;10384824;28;20225;-74
2022/11/01 00:52:52;;;;;;;17.97;12.73;;;13.50;99.90;;;;;;10392109;28;20266;-74
2022/11/01 00:57:53;;;;;;;16.43;11.83;;;13.50;99.90;;;;;;10410619;28;20805;-74
2022/11/01 01:02:53;;;;;;;17.43;13.20;;;13.60;99.90;;;;;;10410743;28;20290;-71
2022/11/01 01:07:54;;;;;;;22.10;13.23;;;13.70;99.90;;;;;;10384818;28;20294;-74
2022/11/01 01:12:55;;;;;;;16.97;12.57;;;13.70;99.90;;;;;;10384578;28;20264;-73
2022/11/01 01:17:55;;;;;;;14.40;11.67;;;13.70;99.90;;;;;;10392792;28;20220;-74
2022/11/01 01:22:56;;;;;;;21.43;13.30;;;13.70;99.90;;;;;;10392877;28;20366;-73
2022/11/01 01:27:56;;;;;;;19.37;11.60;;;13.70;99.90;;;;;;10414540;28;20250;-73
2022/11/01 01:32:57;;;;;;;13.87;11.77;;;13.70;99.90;;;;;;10432523;28;20226;-73
2022/11/01 01:37:57;;;;;;;18.13;11.97;;;13.70;99.90;;;;;;10400197;28;20221;-71
2022/11/01 01:42:58;;;;;;;16.13;11.57;;;13.70;99.90;;;;;;10391028;28;20228;-70
2022/11/01 01:48:21;;;;;;;16.13;11.27;;;13.70;99.90;;;;;;10384269;28;20213;-70
2022/11/01 01:53:32;;;;;;;14.63;10.30;;;13.70;99.90;;;;;;10395777;28;20228;-70
2022/11/01 01:58:48;;;;;;;13.23;8.97;;;13.80;99.90;;;;;;10387208;28;20216;-70
2022/11/01 02:03:49;;;;;;;14.27;8.40;;;13.90;99.90;;;;;;10383295;28;20216;-69
2022/11/01 02:08:59;;;;;;;13.17;7.80;;;14.00;99.90;;;;;;10397402;28;20294;-69
2022/11/01 02:14:00;;;;;;;12.10;7.37;;;14.20;99.90;;;;;;10382444;28;20221;-70
2022/11/01 02:19:35;;;;;;;13.33;6.97;;;14.40;99.90;;;;;;10389908;28;20943;-71
2022/11/01 02:24:48;;;;;;;10.17;6.63;;;14.50;99.90;;;;;;10387578;28;20295;-75
2022/11/01 02:30:20;;;;;;;10.30;6.40;;;14.70;99.90;;;;;;10395887;28;20771;-71
2022/11/01 02:35:28;;;;;;;10.50;6.20;;;14.80;99.90;;;;;;10419930;28;20231;-72
2022/11/01 02:40:42;;;;;;;11.60;6.27;;;14.90;99.90;;;;;;10386171;28;20295;-72
2022/11/01 02:45:48;;;;;;;12.87;6.10;;;15.00;99.90;;;;;;10383534;28;20319;-73
2022/11/01 02:50:53;;;;;;;12.33;7.27;;;15.00;99.90;;;;;;10389004;28;20707;-74
2022/11/01 02:55:54;;;;;;;12.13;7.20;;;15.10;99.90;;;;;;10389717;28;20308;-74
2022/11/01 03:00:55;;;;;;;12.47;6.23;;;15.10;99.90;;;;;;10391063;28;20314;-75
2022/11/01 03:05:59;;;;;;;11.47;7.20;;;15.10;99.90;;;;;;10389679;28;20229;-71
2022/11/01 03:11:08;;;;;;;11.87;6.57;;;15.20;99.90;;;;;;10397864;28;20703;-71
2022/11/01 03:16:39;;;;;;;13.17;6.77;;;15.30;99.90;;;;;;10408191;28;20211;-70
2022/11/01 03:21:56;;;;;;;15.57;7.57;;;15.40;99.90;;;;;;10419666;28;20700;-70
2022/11/01 03:27:01;;;;;;;17.50;9.03;;;15.40;99.90;;;;;;10389660;28;20219;-71
2022/11/01 03:32:03;;;;;;;13.60;9.00;;;15.40;99.90;;;;;;10390101;28;20213;-70
2022/11/01 03:37:10;;;;;;;20.77;11.47;;;15.20;99.90;;;;;;10395866;28;20220;-71
2022/11/01 03:42:15;;;;;;;17.97;10.90;;;14.90;99.90;;;;;;10390708;28;20225;-76
2022/11/01 03:47:15;;;;;;;19.13;11.87;;;14.60;99.90;;;;;;10403089;28;21344;-72
2022/11/01 03:52:16;;;;;;;18.60;12.03;;;14.40;99.90;;;;;;10393371;28;20267;-73
2022/11/01 03:57:16;;;;;;;20.93;11.90;;;14.40;99.90;;;;;;10389781;28;20216;-74
2022/11/01 04:02:17;;;;;;;16.77;10.17;;;14.40;99.90;;;;;;10392435;28;20359;-74
2022/11/01 04:07:17;;;;;;;18.30;10.87;;;14.40;99.90;;;;;;10389210;28;20737;-72
2022/11/01 04:12:18;;;;;;;16.30;10.57;;;14.40;99.90;;;;;;10397400;28;20249;-74
2022/11/01 04:22:38;;;;;;;16.53;9.63;;;14.40;99.90;;;;;;10396921;28;20316;-74
2022/11/01 04:27:38;;;;;;;12.43;9.20;;;14.50;99.90;;;;;;10392286;28;20216;-76
2022/11/01 04:32:43;;;;;;;19.33;10.27;;;14.50;99.90;;;;;;10387489;28;20489;-76
2022/11/01 04:37:43;;;;;;;15.97;10.73;;;14.50;99.90;;;;;;10391945;28;20270;-76
2022/11/01 04:42:44;;;;;;;13.67;9.10;;;14.50;99.90;;;;;;10387788;28;20260;-74
2022/11/01 04:47:51;;;;;;;17.10;9.53;;;14.50;99.90;;;;;;10395120;28;20221;-70
2022/11/01 04:52:56;;;;;;;13.47;9.97;;;14.50;99.90;;;;;;10394355;28;20902;-69
2022/11/01 04:57:56;;;;;;;17.83;10.10;;;14.50;99.90;;;;;;10384656;28;20263;-74
2022/11/01 05:03:02;;;;;;;19.00;10.07;;;14.60;99.90;;;;;;10393739;28;20714;-74
2022/11/01 05:08:08;;;;;;;15.27;10.53;;;14.50;99.90;;;;;;10383249;28;20274;-75
2022/11/01 05:13:10;;;;;;;20.20;11.80;;;14.60;99.90;;;;;;10385618;28;20587;-73
2022/11/01 05:18:11;;;;;;;21.20;12.63;;;14.60;99.90;;;;;;10397764;28;20224;-74
2022/11/01 05:23:12;;;;;;;24.10;14.90;;;14.50;99.90;;;;;;10386260;28;21006;-73
2022/11/01 05:28:13;;;;;;;20.73;14.20;;;14.40;99.90;;;;;;10389856;28;20213;-69
2022/11/01 05:33:14;;;;;;;23.87;13.93;;;14.50;99.90;;;;;;10391485;28;20307;-71
2022/11/01 05:38:14;;;;;;;23.03;14.47;;;14.40;99.90;;;;;;10383398;28;20307;-71
2022/11/01 05:43:15;;;;;;;26.07;16.47;;;14.40;99.90;;;;;;10384406;28;20231;-70
2022/11/01 05:48:15;;;;;;;20.70;15.40;;;14.40;99.90;;;;;;10390848;28;20208;-70
2022/11/01 05:53:16;;;;;;;24.13;15.03;;;14.40;99.90;;;;;;10388089;28;20312;-68
2022/11/01 05:58:16;;;;;;;22.93;14.03;;;14.40;99.90;;;;;;10392807;28;20239;-74
2022/11/01 06:03:17;;;;;;;20.23;14.37;;;14.40;99.90;;;;;;10433806;28;20220;-76
2022/11/01 06:08:18;;;;;;;24.80;15.20;;;14.30;99.90;;;;;;10445625;28;20278;-76
2022/11/01 06:13:18;;;;;;;21.43;14.03;;;14.30;99.90;;;;;;10422892;28;20215;-75
2022/11/01 06:18:19;;;;;;;20.37;14.17;;;14.30;99.90;;;;;;10407871;28;20274;-75
2022/11/01 06:23:19;;;;;;;22.03;13.63;;;14.30;99.90;;;;;;10388257;28;20271;-75
2022/11/01 06:28:20;;;;;;;21.03;13.73;;;14.30;99.90;;;;;;10385090;28;20212;-75
2022/11/01 06:33:21;;;;;;;26.30;15.20;;;14.30;99.90;;;;;;10390293;28;20894;-75
2022/11/01 06:38:21;;;;;;;18.13;12.87;;;14.30;99.90;;;;;;10388830;28;20220;-74
2022/11/01 06:43:22;;;;;;;23.20;13.30;;;14.30;99.90;;;;;;10388061;28;20229;-75
2022/11/01 06:48:23;;;;;;;16.27;12.57;;;14.20;99.90;;;;;;10418901;28;20238;-75
2022/11/01 06:53:23;;;;;;;17.87;11.40;;;14.30;99.90;;;;;;10428893;28;20232;-71
2022/11/01 06:58:25;;;;;;;16.13;10.40;;;14.40;99.90;;;;;;10428887;28;20231;-75
2022/11/01 07:03:25;;;;;;;14.30;9.97;;;14.50;99.90;;;;;;10402838;28;20762;-76
2022/11/01 07:08:26;;;;;;;19.43;10.67;;;14.60;99.90;;;;;;10385238;28;20231;-75
2022/11/01 07:13:29;;;;;;;13.10;10.20;;;14.70;99.90;;;;;;10390999;28;20224;-75
2022/11/01 07:18:31;;;;;;;19.00;9.90;;;14.80;99.90;;;;;;10383917;28;20274;-75
2022/11/01 07:23:31;;;;;;;12.93;9.10;;;14.90;99.90;;;;;;10383806;28;20237;-74
2022/11/01 07:28:32;;;;;;;12.87;9.00;;;15.00;99.90;;;;;;10401011;28;20224;-70
2022/11/01 07:33:33;;;;;;;11.70;8.03;;;15.20;99.90;;;;;;10402624;28;20221;-72
2022/11/01 07:38:33;;;;;;;12.60;8.07;;;15.20;99.90;;;;;;10403660;28;20216;-72
2022/11/01 07:43:34;;;;;;;10.50;8.10;;;15.20;99.90;;;;;;10403082;28;20327;-75
2022/11/01 07:48:35;;;;;;;12.53;7.63;;;15.20;99.90;;;;;;10399778;28;20220;-74
2022/11/01 07:53:36;;;;;;;11.67;7.30;;;15.30;99.90;;;;;;10382361;28;20625;-75
2022/11/01 07:58:36;;;;;;;12.03;7.17;;;15.50;99.90;;;;;;10397595;28;20515;-72
2022/11/01 08:03:37;;;;;;;12.47;6.80;;;15.70;99.90;;;;;;10395695;28;20234;-70
2022/11/01 08:08:38;;;;;;;12.27;7.70;;;15.80;99.90;;;;;;10406006;28;20540;-69
2022/11/01 08:13:39;;;;;;;14.03;6.37;;;15.90;99.90;;;;;;10402158;28;20224;-67
2022/11/01 08:18:39;;;;;;;9.53;5.90;;;16.10;99.90;;;;;;10400286;28;20228;-68
2022/11/01 08:23:41;;;;;;;9.53;6.30;;;16.20;99.90;;;;;;10415554;28;20241;-73
2022/11/01 08:28:42;;;;;;;10.30;6.00;;;16.40;99.90;;;;;;10409418;28;20587;-73
2022/11/01 08:33:42;;;;;;;9.00;6.00;;;16.50;99.90;;;;;;10425751;28;20224;-69
2022/11/01 08:38:43;;;;;;;7.97;5.67;;;16.60;99.90;;;;;;10430062;28;20644;-73
2022/11/01 08:43:44;;;;;;;9.37;5.43;;;16.60;99.90;;;;;;10415013;28;20327;-71
2022/11/01 08:48:46;;;;;;;10.77;6.30;;;16.50;99.90;;;;;;10429647;28;20579;-69
2022/11/01 08:53:47;;;;;;;9.73;5.87;;;16.30;99.90;;;;;;10407790;28;20217;-70
2022/11/01 08:58:48;;;;;;;9.43;5.57;;;16.10;99.90;;;;;;10407783;28;20228;-68
2022/11/01 09:03:49;;;;;;;8.70;5.83;;;15.90;99.90;;;;;;10407747;28;20224;-71
2022/11/01 09:08:52;;;;;;;13.20;5.97;;;15.80;99.90;;;;;;10405650;28;20251;-71
2022/11/01 09:13:53;;;;;;;9.97;5.67;;;15.80;99.90;;;;;;10408193;28;20217;-71
2022/11/01 09:18:54;;;;;;;10.47;5.63;;;15.80;99.90;;;;;;10438297;28;20220;-71
2022/11/01 09:23:55;;;;;;;10.07;5.90;;;15.90;99.90;;;;;;10446940;28;20220;-72
2022/11/01 09:28:57;;;;;;;9.67;6.30;;;16.10;99.90;;;;;;10448300;28;20672;-69
2022/11/01 09:33:59;;;;;;;10.30;4.57;;;16.10;99.90;;;;;;10414915;28;20255;-71
2022/11/01 09:38:59;;;;;;;8.57;4.83;;;15.90;99.90;;;;;;10404923;28;20224;-71
2022/11/01 09:44:03;;;;;;;8.53;4.87;;;15.80;99.90;;;;;;10404495;28;20224;-70
2022/11/01 09:49:05;;;;;;;8.73;5.47;;;15.80;99.90;;;;;;10396854;28;20218;-71
2022/11/01 09:54:09;;;;;;;10.87;5.23;;;16.00;99.90;;;;;;10397766;28;20350;-72
2022/11/01 09:59:29;;;;;;;7.90;4.07;;;16.10;99.90;;;;;;10387023;28;20232;-71
2022/11/01 10:04:36;;;;;;;5.40;2.90;;;16.20;99.90;;;;;;10387310;28;20256;-69
2022/11/01 10:09:53;;;;;;;5.73;1.93;;;16.40;99.90;;;;;;10381805;28;20239;-69
2022/11/01 10:15:02;;;;;;;3.33;1.63;;;16.70;99.90;;;;;;10382345;28;20232;-68
2022/11/01 10:20:04;;;;;;;5.33;1.70;;;17.10;99.90;;;;;;10382404;28;20276;-67
2022/11/01 10:25:21;;;;;;;3.63;1.63;;;17.40;99.90;;;;;;10432518;28;20546;-68
2022/11/01 10:30:22;;;;;;;5.20;1.63;;;17.60;99.90;;;;;;10423980;28;20552;-68
2022/11/01 10:35:26;;;;;;;4.07;1.73;;;17.60;99.90;;;;;;10388913;28;20188;-69
2022/11/01 10:40:33;;;;;;;6.37;2.07;;;17.60;99.90;;;;;;10397265;28;20230;-71
2022/11/01 10:45:34;;;;;;;5.37;1.50;;;17.70;99.90;;;;;;10385217;28;20901;-70
2022/11/01 10:50:35;;;;;;;6.80;2.07;;;18.30;99.90;;;;;;10386375;28;20324;-71
2022/11/01 10:55:40;;;;;;;2.77;1.27;;;18.80;99.90;;;;;;10391967;28;20571;-69
2022/11/01 11:00:41;;;;;;;4.93;1.53;;;19.40;99.90;;;;;;10386763;28;20223;-70
2022/11/01 11:05:43;;;;;;;3.23;1.37;;;19.70;99.90;;;;;;10380717;28;20237;-70
2022/11/01 11:10:44;;;;;;;5.77;1.90;;;20.00;99.90;;;;;;10390916;28;20244;-68
2022/11/01 11:15:53;;;;;;;8.03;3.10;;;20.00;99.90;;;;;;10403692;28;20229;-68
2022/11/01 11:20:58;;;;;;;5.57;1.73;;;19.40;99.90;;;;;;10380777;28;20237;-68
2022/11/01 11:26:19;;;;;;;3.93;1.17;;;18.80;99.90;;;;;;10387333;28;20949;-69
2022/11/01 11:31:34;;;;;;;5.03;1.50;;;18.30;99.90;;;;;;10391480;28;20358;-69
2022/11/01 11:36:40;;;;;;;4.53;1.50;;;18.00;99.90;;;;;;10418380;28;20857;-69
2022/11/01 11:41:45;;;;;;;5.27;1.13;;;17.90;99.90;;;;;;10451131;28;20232;-69
2022/11/01 11:46:56;;;;;;;4.10;1.40;;;17.80;99.90;;;;;;10430704;28;20906;-69
2022/11/01 11:51:57;;;;;;;5.33;1.10;;;17.70;99.90;;;;;;10402942;28;20222;-68
2022/11/01 11:57:25;;;;;;;1.97;1.00;;;17.70;99.90;;;;;;10416103;28;20220;-69
2022/11/01 12:02:30;;;;;;;4.57;0.93;;;17.70;99.90;;;;;;10418753;28;20226;-69
2022/11/01 12:07:36;;;;;;;5.00;1.40;;;17.70;99.90;;;;;;10406937;28;20624;-69
2022/11/01 12:12:44;;;;;;;3.10;1.20;;;17.70;99.90;;;;;;10408465;28;20247;-67
2022/11/01 12:17:45;;;;;;;4.70;1.00;;;17.60;99.90;;;;;;10422339;28;20228;-68
2022/11/01 12:22:51;;;;;;;2.83;1.33;;;17.50;99.90;;;;;;10421096;28;20221;-68
2022/11/01 12:28:02;;;;;;;8.10;1.33;;;17.50;99.90;;;;;;10389350;28;20685;-68
2022/11/01 12:33:31;;;;;;;4.33;1.23;;;17.60;99.90;;;;;;10431320;28;20228;-68
2022/11/01 12:38:41;;;;;;;3.00;1.20;;;17.60;99.90;;;;;;10416089;28;20244;-68
2022/11/01 12:44:04;;;;;;;4.07;1.10;;;17.60;99.90;;;;;;10422773;28;20350;-68
2022/11/01 12:49:15;;;;;;;3.57;1.10;;;17.50;99.90;;;;;;10418561;28;20220;-68
2022/11/01 12:54:26;;;;;;;12.43;1.50;;;17.40;99.90;;;;;;10415294;28;20221;-67
2022/11/01 12:59:35;;;;;;;4.83;1.40;;;17.30;99.90;;;;;;10404657;28;20236;-68
2022/11/01 13:04:43;;;;;;;2.53;1.00;;;17.20;99.90;;;;;;10373722;28;20743;-69
2022/11/01 13:10:23;;;;;;;3.57;1.00;;;17.20;99.90;;;;;;10398468;28;20302;-71
2022/11/01 13:15:26;;;;;;;4.33;1.30;;;17.10;99.90;;;;;;10241023;28;20216;-71
2022/11/01 13:20:48;;;;;;;2.67;1.20;;;17.10;99.90;;;;;;10372426;28;20256;-71
2022/11/01 13:26:04;;;;;;;5.40;1.43;;;17.10;99.90;;;;;;10419378;28;20224;-70
2022/11/01 13:31:46;;;;;;;4.87;1.20;;;17.00;99.90;;;;;;10425869;28;20376;-70
2022/11/01 13:37:31;;;;;;;3.67;1.27;;;17.00;99.90;;;;;;10442765;28;20219;-70
2022/11/01 13:42:46;;;;;;;7.23;1.73;;;17.10;99.90;;;;;;10439236;28;20223;-72
2022/11/01 13:47:49;;;;;;;7.13;1.43;;;17.10;99.90;;;;;;10442644;28;20223;-71
2022/11/01 13:53:13;;;;;;;5.73;1.50;;;17.10;99.90;;;;;;10443367;28;20959;-71
2022/11/01 13:58:19;;;;;;;3.97;1.30;;;17.10;99.90;;;;;;10397402;28;20330;-72
2022/11/01 14:03:31;;;;;;;5.67;1.47;;;17.10;99.90;;;;;;10443508;28;20679;-73
2022/11/01 14:08:39;;;;;;;5.47;1.40;;;17.00;99.90;;;;;;10444479;28;20223;-73
2022/11/01 14:13:46;;;;;;;4.97;1.10;;;16.90;99.90;;;;;;10443535;28;20223;-72
2022/11/01 14:19:02;;;;;;;5.57;1.33;;;16.90;99.90;;;;;;10440234;28;20752;-72
2022/11/01 14:24:15;;;;;;;5.73;1.57;;;16.90;99.90;;;;;;10442842;28;20228;-71
2022/11/01 14:29:16;;;;;;;4.90;1.47;;;16.90;99.90;;;;;;10443374;28;20382;-71
2022/11/01 14:34:30;;;;;;;3.50;1.40;;;16.90;99.90;;;;;;10444163;28;20216;-73
2022/11/01 14:39:47;;;;;;;6.47;1.60;;;16.90;99.90;;;;;;10444304;28;20672;-72
2022/11/01 14:44:51;;;;;;;5.53;1.33;;;16.80;99.90;;;;;;10442227;28;20289;-72
2022/11/01 14:49:55;;;;;;;6.60;1.23;;;16.60;99.90;;;;;;10441348;28;20638;-71
2022/11/01 14:55:19;;;;;;;5.53;1.63;;;16.50;99.90;;;;;;10416168;28;20809;-73
2022/11/01 15:00:27;;;;;;;6.33;1.70;;;16.40;99.90;;;;;;10447457;28;20220;-71
2022/11/01 15:05:28;;;;;;;3.60;1.10;;;16.20;99.90;;;;;;10426997;28;20250;-77
2022/11/01 15:10:40;;;;;;;7.33;1.87;;;16.00;99.90;;;;;;10437089;28;20318;-76
2022/11/01 15:15:49;;;;;;;5.07;1.60;;;15.70;99.90;;;;;;10406487;28;20228;-75
2022/11/01 15:20:53;;;;;;;6.50;1.60;;;15.60;99.90;;;;;;10427274;28;20315;-75
2022/11/01 15:25:56;;;;;;;5.17;1.60;;;15.40;99.90;;;;;;10413216;28;20336;-75
2022/11/01 15:30:59;;;;;;;8.70;1.50;;;15.20;99.90;;;;;;10427583;28;20235;-73
2022/11/01 15:36:07;;;;;;;6.10;1.70;;;15.10;99.90;;;;;;10394799;28;20228;-76
2022/11/01 15:41:31;;;;;;;4.90;1.70;;;15.00;99.90;;;;;;10399095;28;20225;-77
2022/11/01 15:46:37;;;;;;;7.77;2.13;;;14.80;99.90;;;;;;10390225;28;20323;-75
2022/11/01 15:51:50;;;;;;;7.70;2.00;;;14.60;99.90;;;;;;10393298;28;20232;-76
2022/11/01 15:56:55;;;;;;;8.07;1.80;;;14.40;99.90;;;;;;10388836;28;20317;-78
2022/11/01 16:01:59;;;;;;;6.07;1.77;;;14.20;99.90;;;;;;10396377;28;20225;-78
2022/11/01 16:07:05;;;;;;;5.43;1.60;;;14.00;99.90;;;;;;10395105;28;20283;-76
2022/11/01 16:12:16;;;;;;;7.07;1.90;;;13.80;99.90;;;;;;10388200;28;20805;-77
2022/11/01 16:17:30;;;;;;;5.57;1.73;;;13.60;99.90;;;;;;10392262;28;20239;-76
2022/11/01 16:22:40;;;;;;;6.43;1.80;;;13.50;99.90;;;;;;10390361;28;20703;-77
2022/11/01 16:27:50;;;;;;;5.57;1.60;;;13.40;99.90;;;;;;10400193;28;20947;-75
2022/11/01 16:32:51;;;;;;;5.70;1.37;;;13.30;99.90;;;;;;10393348;28;20213;-78
2022/11/01 16:37:52;;;;;;;8.93;2.10;;;13.20;99.90;;;;;;10394960;28;20232;-77
2022/11/01 16:42:54;;;;;;;7.53;2.10;;;13.10;99.90;;;;;;10404340;28;20220;-78
2022/11/01 16:47:54;;;;;;;9.87;1.80;;;13.10;99.90;;;;;;10421275;28;20335;-78
2022/11/01 16:52:55;;;;;;;5.13;1.63;;;13.10;99.90;;;;;;10434963;28;20216;-73
2022/11/01 16:57:55;;;;;;;8.20;2.03;;;13.10;99.90;;;;;;10412471;28;20223;-73
2022/11/01 17:02:58;;;;;;;6.93;2.03;;;12.90;99.90;;;;;;10393888;28;20314;-72
2022/11/01 17:07:58;;;;;;;9.97;2.10;;;12.90;99.90;;;;;;10391292;28;20221;-73
2022/11/01 17:13:02;;;;;;;5.57;2.00;;;12.80;99.90;;;;;;10392948;28;20764;-75
2022/11/01 17:18:11;;;;;;;9.23;2.33;;;12.70;99.90;;;;;;10397395;28;20643;-75
2022/11/01 17:23:19;;;;;;;6.47;1.87;;;12.70;99.90;;;;;;10377747;28;20584;-74
2022/11/01 17:28:22;;;;;;;6.90;2.47;;;12.70;99.90;;;;;;10393722;28;20225;-73
2022/11/01 17:33:23;;;;;;;6.40;2.23;;;12.50;99.90;;;;;;10381600;28;20297;-74
2022/11/01 17:38:27;;;;;;;6.83;2.20;;;12.50;99.90;;;;;;10390268;28;20300;-74
2022/11/01 17:43:28;;;;;;;10.20;2.50;;;12.40;99.90;;;;;;10377988;28;20316;-75
2022/11/01 17:48:29;;;;;;;7.10;2.27;;;12.30;99.90;;;;;;10385611;28;20951;-73
2022/11/01 17:53:30;;;;;;;7.73;2.93;;;12.30;99.90;;;;;;10386849;28;20563;-74
2022/11/01 17:58:31;;;;;;;9.83;2.47;;;12.20;99.90;;;;;;10387395;28;20235;-73
2022/11/01 18:03:31;;;;;;;8.97;2.03;;;12.20;99.90;;;;;;10389409;28;20231;-75
2022/11/01 18:08:33;;;;;;;6.50;1.73;;;12.20;99.90;;;;;;10385361;28;20555;-74
2022/11/01 18:14:10;;;;;;;6.33;1.93;;;12.00;99.90;;;;;;10387067;28;20231;-72
2022/11/01 18:19:33;;;;;;;8.73;2.13;;;12.00;99.90;;;;;;10383438;28;20248;-73
2022/11/01 18:25:09;;;;;;;6.87;2.40;;;11.90;99.90;;;;;;10389790;28;20216;-74
2022/11/01 18:30:13;;;;;;;6.23;2.10;;;11.80;99.90;;;;;;10431121;28;20216;-74
2022/11/01 18:35:22;;;;;;;15.47;3.40;;;11.70;99.90;;;;;;10431999;28;20208;-74
2022/11/01 18:40:38;;;;;;;8.87;2.60;;;11.60;99.90;;;;;;10383476;28;20656;-74
2022/11/01 18:45:39;;;;;;;9.27;2.37;;;11.60;99.90;;;;;;10398617;28;20758;-74
2022/11/01 18:50:39;;;;;;;13.47;2.40;;;11.60;99.90;;;;;;10393573;28;20308;-73
2022/11/01 18:55:43;;;;;;;10.60;2.40;;;11.60;99.90;;;;;;10384985;28;20711;-72
2022/11/01 19:00:43;;;;;;;5.07;2.00;;;11.60;99.90;;;;;;10383400;28;20215;-73
2022/11/01 19:05:44;;;;;;;8.97;2.43;;;11.50;99.90;;;;;;10394953;28;20234;-73
2022/11/01 19:10:45;;;;;;;8.80;2.77;;;11.50;99.90;;;;;;10381044;28;20240;-74
2022/11/01 19:15:45;;;;;;;15.80;3.00;;;11.50;99.90;;;;;;10386850;28;20224;-74
2022/11/01 19:20:51;;;;;;;10.97;2.70;;;11.30;99.90;;;;;;10383785;28;20221;-75
2022/11/01 19:25:52;;;;;;;6.47;2.40;;;11.30;99.90;;;;;;10399309;28;20243;-74
2022/11/01 19:30:56;;;;;;;8.10;2.40;;;11.30;99.90;;;;;;10438418;28;20220;-73
2022/11/01 19:35:58;;;;;;;5.87;2.33;;;11.20;99.90;;;;;;10421767;28;20588;-74
2022/11/01 19:40:58;;;;;;;6.77;2.30;;;11.10;99.90;;;;;;10381993;28;20279;-72
2022/11/01 19:45:59;;;;;;;9.40;2.63;;;11.10;99.90;;;;;;10393512;28;20251;-72
2022/11/01 19:50:59;;;;;;;9.87;3.00;;;11.00;99.90;;;;;;10388942;28;20283;-74
2022/11/01 19:56:25;;;;;;;12.23;3.40;;;11.00;99.90;;;;;;10388572;28;20668;-74
2022/11/01 20:01:41;;;;;;;9.23;2.70;;;11.00;99.90;;;;;;10400341;28;20682;-73
2022/11/01 20:07:01;;;;;;;10.47;2.77;;;11.10;99.90;;;;;;10396447;28;20791;-72
2022/11/01 20:12:01;;;;;;;8.07;2.87;;;11.00;99.90;;;;;;10391072;28;20239;-72
2022/11/01 20:17:05;;;;;;;9.27;2.70;;;11.00;99.90;;;;;;10405354;28;20238;-73
2022/11/01 20:22:05;;;;;;;6.27;2.70;;;10.90;99.90;;;;;;10395321;28;20224;-72
2022/11/01 20:27:09;;;;;;;9.90;2.80;;;10.90;99.90;;;;;;10396627;28;20240;-73
2022/11/01 20:32:10;;;;;;;8.13;2.93;;;10.80;99.90;;;;;;10395344;28;20224;-73
2022/11/01 20:37:10;;;;;;;7.73;2.67;;;10.70;99.90;;;;;;10394479;28;20223;-74
2022/11/01 20:42:11;;;;;;;7.23;2.60;;;10.70;99.90;;;;;;10395724;28;20275;-73
2022/11/01 20:47:13;;;;;;;7.30;3.10;;;10.70;99.90;;;;;;10403421;28;20228;-78
2022/11/01 20:52:13;;;;;;;7.33;2.60;;;10.70;99.90;;;;;;10402836;28;20762;-76
2022/11/01 20:57:14;;;;;;;12.43;3.10;;;10.70;99.90;;;;;;10430821;28;20272;-78
2022/11/01 21:02:18;;;;;;;9.87;3.57;;;10.70;99.90;;;;;;10426351;28;20751;-79
2022/11/01 21:07:25;;;;;;;6.37;2.40;;;10.80;99.90;;;;;;10387080;28;20371;-77
2022/11/01 21:12:43;;;;;;;10.27;2.87;;;10.80;99.90;;;;;;10393311;28;20224;-76
2022/11/01 21:17:49;;;;;;;6.23;2.03;;;10.80;99.90;;;;;;10387653;28;20234;-77
2022/11/01 21:22:58;;;;;;;5.87;2.30;;;10.90;99.90;;;;;;10408261;28;20232;-76
2022/11/01 21:27:59;;;;;;;8.23;2.40;;;10.90;99.90;;;;;;10384452;28;20698;-75
2022/11/01 21:33:19;;;;;;;10.30;3.23;;;10.90;99.90;;;;;;10392836;28;20216;-77
2022/11/01 21:38:38;;;;;;;11.47;2.33;;;10.90;99.90;;;;;;10404718;28;20304;-76
2022/11/01 21:43:42;;;;;;;7.63;2.40;;;10.90;99.90;;;;;;10382623;28;20723;-73
2022/11/01 21:48:43;;;;;;;7.27;2.20;;;11.00;99.90;;;;;;10386499;28;20577;-73
2022/11/01 21:53:43;;;;;;;11.17;2.33;;;10.90;99.90;;;;;;10390286;28;20212;-74
2022/11/01 21:58:44;;;;;;;12.07;3.10;;;10.90;99.90;;;;;;10385668;28;20595;-74
2022/11/01 22:03:45;;;;;;;9.87;2.70;;;10.90;99.90;;;;;;10389168;28;20228;-78
2022/11/01 22:08:45;;;;;;;11.33;2.60;;;10.90;99.90;;;;;;10384983;28;20282;-78
2022/11/01 22:13:46;;;;;;;9.70;2.70;;;10.90;99.90;;;;;;10383556;28;20228;-78
2022/11/01 22:18:47;;;;;;;6.90;2.20;;;10.90;99.90;;;;;;10389364;28;20220;-78
2022/11/01 22:23:47;;;;;;;6.40;1.93;;;11.00;99.90;;;;;;10385283;28;20221;-79
2022/11/01 22:28:48;;;;;;;7.00;2.27;;;11.00;99.90;;;;;;10389709;28;20220;-76
2022/11/01 22:33:53;;;;;;;8.53;2.50;;;11.10;99.90;;;;;;10396582;28;20230;-76
2022/11/01 22:38:56;;;;;;;6.97;1.97;;;11.10;99.90;;;;;;10391337;28;20224;-75
2022/11/01 22:44:00;;;;;;;7.13;2.17;;;11.10;99.90;;;;;;10382878;28;20216;-76
2022/11/01 22:49:10;;;;;;;9.23;2.37;;;11.00;99.90;;;;;;10383790;28;20219;-76
2022/11/01 22:54:31;;;;;;;6.33;2.03;;;10.90;99.90;;;;;;10388172;28;20224;-76
2022/11/01 22:59:33;;;;;;;5.40;2.07;;;10.90;99.90;;;;;;10391153;28;20217;-75
2022/11/01 23:04:34;;;;;;;9.73;2.23;;;10.80;99.90;;;;;;10387636;28;20617;-77
2022/11/01 23:09:35;;;;;;;9.70;2.07;;;10.80;99.90;;;;;;10388430;28;20204;-75
2022/11/01 23:14:38;;;;;;;7.83;2.00;;;10.90;99.90;;;;;;10388430;28;20590;-75
2022/11/01 23:19:39;;;;;;;5.97;1.97;;;10.90;99.90;;;;;;10384666;28;20284;-77
2022/11/01 23:24:39;;;;;;;8.53;1.97;;;11.00;99.90;;;;;;10397938;28;20220;-76
2022/11/01 23:29:41;;;;;;;7.27;1.70;;;10.90;99.90;;;;;;10392174;28;20668;-77
2022/11/01 23:34:42;;;;;;;6.63;1.87;;;10.80;99.90;;;;;;10394355;28;20259;-78
2022/11/01 23:39:43;;;;;;;7.03;2.00;;;10.80;99.90;;;;;;10392957;28;20251;-81
2022/11/01 23:44:45;;;;;;;6.63;1.90;;;10.90;99.90;;;;;;10394613;28;20338;-79
2022/11/01 23:49:51;;;;;;;8.63;2.33;;;10.90;99.90;;;;;;10391574;28;20229;-78
2022/11/01 23:54:52;;;;;;;6.37;1.90;;;10.80;99.90;;;;;;10396242;28;20258;-76
2022/11/01 23:59:52;;;;;;;7.03;1.63;;;10.80;99.90;;;;;;10388223;28;20632;-77
